Decoded Metar for KOLM (OLYMPIA in WA, USA) (IATA:OLM) | Meteo·Mobile Aviation Weather
aviador You're here:

KOLM Decoded Metar

OLYMPIA in WA, USA
Report Time2018-11-18 07:54:00
UTC Time2018-11-18 08:18:03
Flight Rules vfr VFR
Wind130° at 03 kt
W.Decomp.*RWY 08: 2.6 kt HW 1.5 kt RCW
RWY 17: 1.5 kt HW 2.6 kt LCW
W.Rank130° ranks 28
Current wind is below 130° avg. (3.7)
Visibility9999 m
Phenomena:N/A
Clouds:N/A
CeilingNone
Temp-2°C (ISA -17)
Dew Point-2°C (100% RH)
AAT-5.3°C
QNH1023 hPa
Density Alt-2,119 ft
Elevation190 ft
Report Wrong Elevation
Raw Report
KOLM 180754Z AUTO 13003KT 10SM CLR M02/M02 A3021 RMK AO2 SLP233
T10171022 401221017=

Extra information for KOLM:More info

Metar Taf Metar & Taf Last 4 Metars F.Rules Stats Wind Profile Meteogram Temp Stats Airport Information Weather charts Add Link Nearby VenuesMetar ALERT Operation Metar Decoded Social comments

AIRNAV info for KOLM